Terminal Aerodrome Forecast
Issued by NWS Grand Forks, ND

Home | Current Version | Previous Version | Graphics & Text | Print | Product List | Glossary On
Versions: 1 2 3 4 5 6 7 8 9 10 11 12 13 14 15 16 17 18 19
000
FTUS43 KFGF 291800 AAA
TAFFAR
TAF AMD
KFAR 291846Z 2919/3018 07007KT P6SM SCT025
     FM292100 06009KT P6SM SCT035
     FM300000 07007KT P6SM SKC
     FM300600 12012KT P6SM OVC250=

USA.gov is the U.S. government's official web portal to all federal, state and local government web resources and services.